Time,TemperatureF,DewpointF,PressureIn,WindDirection,WindDirectionDegrees,WindSpeedMPH,WindSpeedGustMPH,Humidity,HourlyPrecipIn,Conditions,Clouds,dailyrainin,SolarRadiationWatts/m^2,SoftwareType,DateUTC
2013-06-14 00:05:00,60.3,26.1,29.59,North,-999,-999.0,-999.0,5,0.00,,,-99.99,0.0,Linux-Irox,2013-06-14 07:05:00,
2013-06-14 00:15:00,59.9,25.7,29.59,North,-999,-999.0,-999.0,5,0.00,,,-99.99,0.0,Linux-Irox,2013-06-14 07:15:00,
2013-06-14 00:25:00,59.4,25.2,29.58,North,-999,-999.0,-999.0,5,0.00,,,-99.99,0.0,Linux-Irox,2013-06-14 07:25:00,
2013-06-14 00:35:00,59.0,24.8,29.58,North,-999,-999.0,-999.0,5,0.00,,,-99.99,0.0,Linux-Irox,2013-06-14 07:35:00,
2013-06-14 00:45:00,58.6,24.4,29.58,North,-999,-999.0,-999.0,5,0.00,,,-99.99,0.0,Linux-Irox,2013-06-14 07:45:00,
2013-06-14 00:55:00,58.3,24.1,29.58,North,-999,-999.0,-999.0,5,0.00,,,-99.99,0.0,Linux-Irox,2013-06-14 07:55:00,
2013-06-14 01:05:00,59.0,24.8,29.57,North,-999,-999.0,-999.0,5,0.00,,,-99.99,0.0,Linux-Irox,2013-06-14 08:05:00,
2013-06-14 01:15:00,58.6,24.4,29.57,North,-999,-999.0,-999.0,5,0.00,,,-99.99,0.0,Linux-Irox,2013-06-14 08:15:00,
2013-06-14 01:25:00,58.3,24.1,29.59,North,-999,-999.0,-999.0,5,0.00,,,-99.99,0.0,Linux-Irox,2013-06-14 08:25:00,
2013-06-14 01:35:00,57.7,23.5,29.59,North,-999,-999.0,-999.0,5,0.00,,,-99.99,0.0,Linux-Irox,2013-06-14 08:35:00,
2013-06-14 01:45:00,57.0,22.8,29.56,North,-999,-999.0,-999.0,5,0.00,,,-99.99,0.0,Linux-Irox,2013-06-14 08:45:00,
2013-06-14 01:55:00,56.3,22.1,29.56,North,-999,-999.0,-999.0,5,0.00,,,-99.99,0.0,Linux-Irox,2013-06-14 08:55:00,
2013-06-14 02:05:00,55.9,21.7,29.56,North,-999,-999.0,-999.0,5,0.00,,,-99.99,0.0,Linux-Irox,2013-06-14 09:05:00,
2013-06-14 02:15:00,55.8,21.6,29.56,North,-999,-999.0,-999.0,5,0.00,,,-99.99,0.0,Linux-Irox,2013-06-14 09:15:00,
2013-06-14 02:25:00,55.8,21.6,29.56,North,-999,-999.0,-999.0,5,0.00,,,-99.99,0.0,Linux-Irox,2013-06-14 09:25:00,
2013-06-14 02:35:00,55.8,21.6,29.56,North,-999,-999.0,-999.0,5,0.00,,,-99.99,0.0,Linux-Irox,2013-06-14 09:35:00,
2013-06-14 02:45:00,55.2,21.0,29.55,North,-999,-999.0,-999.0,5,0.00,,,-99.99,0.0,Linux-Irox,2013-06-14 09:45:00,
2013-06-14 02:55:00,55.2,21.0,29.55,North,-999,-999.0,-999.0,5,0.00,,,-99.99,0.0,Linux-Irox,2013-06-14 09:55:00,
2013-06-14 03:05:00,55.8,21.6,29.54,North,-999,-999.0,-999.0,5,0.00,,,-99.99,0.0,Linux-Irox,2013-06-14 10:05:00,
2013-06-14 03:15:00,57.6,23.4,29.54,North,-999,-999.0,-999.0,5,0.00,,,-99.99,0.0,Linux-Irox,2013-06-14 10:15:00,
2013-06-14 03:25:00,57.4,23.2,29.53,North,-999,-999.0,-999.0,5,0.00,,,-99.99,0.0,Linux-Irox,2013-06-14 10:25:00,
2013-06-14 03:35:00,56.5,22.3,29.53,North,-999,-999.0,-999.0,5,0.00,,,-99.99,0.0,Linux-Irox,2013-06-14 10:35:00,
2013-06-14 03:45:00,55.8,21.6,29.53,North,-999,-999.0,-999.0,5,0.00,,,-99.99,0.0,Linux-Irox,2013-06-14 10:45:00,
2013-06-14 03:55:00,55.6,21.4,29.53,North,-999,-999.0,-999.0,5,0.00,,,-99.99,0.0,Linux-Irox,2013-06-14 10:55:00,
2013-06-14 04:05:00,55.4,21.2,29.53,North,-999,-999.0,-999.0,5,0.00,,,-99.99,0.0,Linux-Irox,2013-06-14 11:05:00,
2013-06-14 04:15:00,55.2,21.0,29.53,North,-999,-999.0,-999.0,5,0.00,,,-99.99,0.0,Linux-Irox,2013-06-14 11:15:00,
2013-06-14 04:25:00,54.7,20.5,29.54,North,-999,-999.0,-999.0,5,0.00,,,-99.99,0.0,Linux-Irox,2013-06-14 11:25:00,
2013-06-14 04:35:00,54.5,20.3,29.54,North,-999,-999.0,-999.0,5,0.00,,,-99.99,0.0,Linux-Irox,2013-06-14 11:35:00,
2013-06-14 04:45:00,54.1,19.9,29.54,North,-999,-999.0,-999.0,5,0.00,,,-99.99,0.0,Linux-Irox,2013-06-14 11:45:00,
2013-06-14 04:55:00,53.6,19.4,29.54,North,-999,-999.0,-999.0,5,0.00,,,-99.99,0.0,Linux-Irox,2013-06-14 11:55:00,
2013-06-14 05:05:00,53.4,19.2,29.53,North,-999,-999.0,-999.0,5,0.00,,,-99.99,0.0,Linux-Irox,2013-06-14 12:05:00,
2013-06-14 05:15:00,53.4,19.2,29.53,North,-999,-999.0,-999.0,5,0.00,,,-99.99,0.0,Linux-Irox,2013-06-14 12:15:00,
2013-06-14 05:25:00,53.1,18.9,29.53,North,-999,-999.0,-999.0,5,0.00,,,-99.99,0.0,Linux-Irox,2013-06-14 12:25:00,
2013-06-14 05:35:00,53.1,18.9,29.53,North,-999,-999.0,-999.0,5,0.00,,,-99.99,0.0,Linux-Irox,2013-06-14 12:35:00,
2013-06-14 05:45:00,52.9,18.7,29.53,North,-999,-999.0,-999.0,5,0.00,,,-99.99,0.0,Linux-Irox,2013-06-14 12:45:00,
2013-06-14 05:55:00,52.9,18.7,29.53,North,-999,-999.0,-999.0,5,0.00,,,-99.99,0.0,Linux-Irox,2013-06-14 12:55:00,
2013-06-14 06:05:00,52.9,18.7,29.53,North,-999,-999.0,-999.0,5,0.00,,,-99.99,0.0,Linux-Irox,2013-06-14 13:05:00,
2013-06-14 06:15:00,53.2,19.0,29.53,North,-999,-999.0,-999.0,5,0.00,,,-99.99,0.0,Linux-Irox,2013-06-14 13:15:00,
2013-06-14 06:25:00,54.0,19.8,29.54,North,-999,-999.0,-999.0,5,0.00,,,-99.99,0.0,Linux-Irox,2013-06-14 13:25:00,
2013-06-14 06:35:00,54.9,20.7,29.54,North,-999,-999.0,-999.0,5,0.00,,,-99.99,0.0,Linux-Irox,2013-06-14 13:35:00,
2013-06-14 06:45:00,59.9,25.7,29.53,North,-999,-999.0,-999.0,5,0.00,,,-99.99,0.0,Linux-Irox,2013-06-14 13:45:00,
2013-06-14 06:55:00,60.1,25.9,29.53,North,-999,-999.0,-999.0,5,0.00,,,-99.99,0.0,Linux-Irox,2013-06-14 13:55:00,
2013-06-14 07:05:00,64.6,30.4,29.53,North,-999,-999.0,-999.0,5,0.00,,,-99.99,0.0,Linux-Irox,2013-06-14 14:05:00,
2013-06-14 07:15:00,65.8,31.6,29.53,North,-999,-999.0,-999.0,5,0.00,,,-99.99,0.0,Linux-Irox,2013-06-14 14:15:00,
2013-06-14 07:25:00,69.4,35.2,29.53,North,-999,-999.0,-999.0,5,0.00,,,-99.99,0.0,Linux-Irox,2013-06-14 14:25:00,
2013-06-14 07:35:00,68.7,34.5,29.53,North,-999,-999.0,-999.0,5,0.00,,,-99.99,0.0,Linux-Irox,2013-06-14 14:35:00,
2013-06-14 07:45:00,71.4,37.2,29.53,North,-999,-999.0,-999.0,5,0.00,,,-99.99,0.0,Linux-Irox,2013-06-14 14:45:00,
2013-06-14 07:55:00,73.6,39.4,29.53,North,-999,-999.0,-999.0,5,0.00,,,-99.99,0.0,Linux-Irox,2013-06-14 14:55:00,
2013-06-14 08:02:00,74.7,40.5,29.52,North,-999,-999.0,-999.0,5,0.00,,,-99.99,0.0,Linux-Irox,2013-06-14 15:02:00,
2013-06-14 08:05:00,74.5,40.3,29.52,North,-999,-999.0,-999.0,5,0.00,,,-99.99,0.0,Linux-Irox,2013-06-14 15:05:00,
2013-06-14 08:15:00,76.6,42.4,29.52,North,-999,-999.0,-999.0,5,0.00,,,-99.99,0.0,Linux-Irox,2013-06-14 15:15:00,
2013-06-14 08:16:00,76.6,42.4,29.52,North,-999,-999.0,-999.0,5,0.00,,,-99.99,0.0,Linux-Irox,2013-06-14 15:16:00,
2013-06-14 08:25:00,78.3,44.1,29.51,North,-999,-999.0,-999.0,5,0.00,,,-99.99,0.0,Linux-Irox,2013-06-14 15:25:00,
2013-06-14 08:31:00,75.7,41.5,29.51,North,-999,-999.0,-999.0,5,0.00,,,-99.99,0.0,Linux-Irox,2013-06-14 15:31:00,
2013-06-14 08:35:00,74.8,40.6,29.51,North,-999,-999.0,-999.0,5,0.00,,,-99.99,0.0,Linux-Irox,2013-06-14 15:35:00,
2013-06-14 08:45:00,78.4,44.2,29.51,North,-999,-999.0,-999.0,5,0.00,,,-99.99,0.0,Linux-Irox,2013-06-14 15:45:00,
2013-06-14 08:47:00,78.4,44.2,29.51,North,-999,-999.0,-999.0,5,0.00,,,-99.99,0.0,Linux-Irox,2013-06-14 15:47:00,
2013-06-14 08:55:00,81.0,46.8,29.51,North,-999,-999.0,-999.0,5,0.00,,,-99.99,0.0,Linux-Irox,2013-06-14 15:55:00,
2013-06-14 09:02:00,79.5,45.3,29.52,North,-999,-999.0,-999.0,5,0.00,,,-99.99,0.0,Linux-Irox,2013-06-14 16:02:00,
2013-06-14 09:05:00,78.6,44.4,29.52,North,-999,-999.0,-999.0,5,0.00,,,-99.99,0.0,Linux-Irox,2013-06-14 16:05:00,
2013-06-14 09:15:00,78.1,43.9,29.52,North,-999,-999.0,-999.0,5,0.00,,,-99.99,0.0,Linux-Irox,2013-06-14 16:15:00,
2013-06-14 09:16:00,78.1,43.9,29.52,North,-999,-999.0,-999.0,5,0.00,,,-99.99,0.0,Linux-Irox,2013-06-14 16:16:00,
2013-06-14 09:25:00,80.8,46.6,29.52,North,-999,-999.0,-999.0,5,0.00,,,-99.99,0.0,Linux-Irox,2013-06-14 16:25:00,
2013-06-14 09:32:00,83.5,49.3,29.52,North,-999,-999.0,-999.0,5,0.00,,,-99.99,0.0,Linux-Irox,2013-06-14 16:32:00,
2013-06-14 09:35:00,83.1,48.9,29.52,North,-999,-999.0,-999.0,5,0.00,,,-99.99,0.0,Linux-Irox,2013-06-14 16:35:00,
2013-06-14 09:45:00,83.8,49.6,29.51,North,-999,-999.0,-999.0,5,0.00,,,-99.99,0.0,Linux-Irox,2013-06-14 16:45:00,
2013-06-14 09:47:00,83.8,49.6,29.51,North,-999,-999.0,-999.0,5,0.00,,,-99.99,0.0,Linux-Irox,2013-06-14 16:47:00,
2013-06-14 09:55:00,84.4,50.2,29.51,North,-999,-999.0,-999.0,5,0.00,,,-99.99,0.0,Linux-Irox,2013-06-14 16:55:00,
2013-06-14 10:01:00,84.2,50.0,29.51,North,-999,-999.0,-999.0,5,0.00,,,-99.99,0.0,Linux-Irox,2013-06-14 17:01:00,
2013-06-14 10:05:00,83.5,49.3,29.51,North,-999,-999.0,-999.0,5,0.00,,,-99.99,0.0,Linux-Irox,2013-06-14 17:05:00,
2013-06-14 10:15:00,84.4,50.2,29.51,North,-999,-999.0,-999.0,5,0.00,,,-99.99,0.0,Linux-Irox,2013-06-14 17:15:00,
2013-06-14 10:17:00,84.4,50.2,29.51,North,-999,-999.0,-999.0,5,0.00,,,-99.99,0.0,Linux-Irox,2013-06-14 17:17:00,
2013-06-14 10:25:00,84.9,50.7,29.51,North,-999,-999.0,-999.0,5,0.00,,,-99.99,0.0,Linux-Irox,2013-06-14 17:25:00,
2013-06-14 10:31:00,85.1,50.9,29.51,North,-999,-999.0,-999.0,5,0.00,,,-99.99,0.0,Linux-Irox,2013-06-14 17:31:00,
2013-06-14 10:35:00,84.9,50.7,29.51,North,-999,-999.0,-999.0,5,0.00,,,-99.99,0.0,Linux-Irox,2013-06-14 17:35:00,
2013-06-14 10:45:00,84.6,50.4,29.51,North,-999,-999.0,-999.0,5,0.00,,,-99.99,0.0,Linux-Irox,2013-06-14 17:45:00,
2013-06-14 10:46:00,84.6,50.4,29.51,North,-999,-999.0,-999.0,5,0.00,,,-99.99,0.0,Linux-Irox,2013-06-14 17:46:00,
2013-06-14 10:55:00,85.1,50.9,29.51,North,-999,-999.0,-999.0,5,0.00,,,-99.99,0.0,Linux-Irox,2013-06-14 17:55:00,
2013-06-14 11:02:00,84.9,50.7,29.51,North,-999,-999.0,-999.0,5,0.00,,,-99.99,0.0,Linux-Irox,2013-06-14 18:02:00,
2013-06-14 11:05:00,84.4,50.2,29.51,North,-999,-999.0,-999.0,5,0.00,,,-99.99,0.0,Linux-Irox,2013-06-14 18:05:00,
2013-06-14 11:15:00,84.4,50.2,29.51,North,-999,-999.0,-999.0,5,0.00,,,-99.99,0.0,Linux-Irox,2013-06-14 18:15:00,
2013-06-14 11:16:00,84.4,50.2,29.51,North,-999,-999.0,-999.0,5,0.00,,,-99.99,0.0,Linux-Irox,2013-06-14 18:16:00,
2013-06-14 11:25:00,84.6,50.4,29.50,North,-999,-999.0,-999.0,5,0.00,,,-99.99,0.0,Linux-Irox,2013-06-14 18:25:00,
2013-06-14 11:32:00,84.7,50.5,29.50,North,-999,-999.0,-999.0,5,0.00,,,-99.99,0.0,Linux-Irox,2013-06-14 18:32:00,
2013-06-14 11:35:00,85.1,50.9,29.50,North,-999,-999.0,-999.0,5,0.00,,,-99.99,0.0,Linux-Irox,2013-06-14 18:35:00,
2013-06-14 11:45:00,84.9,50.7,29.50,North,-999,-999.0,-999.0,5,0.00,,,-99.99,0.0,Linux-Irox,2013-06-14 18:45:00,
2013-06-14 11:47:00,84.9,50.7,29.50,North,-999,-999.0,-999.0,5,0.00,,,-99.99,0.0,Linux-Irox,2013-06-14 18:47:00,
2013-06-14 11:55:00,83.7,49.5,29.50,North,-999,-999.0,-999.0,5,0.00,,,-99.99,0.0,Linux-Irox,2013-06-14 18:55:00,
2013-06-14 12:02:00,84.6,50.4,29.50,North,-999,-999.0,-999.0,5,0.00,,,-99.99,0.0,Linux-Irox,2013-06-14 19:02:00,
2013-06-14 12:05:00,84.6,50.4,29.50,North,-999,-999.0,-999.0,5,0.00,,,-99.99,0.0,Linux-Irox,2013-06-14 19:05:00,
2013-06-14 12:15:00,85.3,51.1,29.50,North,-999,-999.0,-999.0,5,0.00,,,-99.99,0.0,Linux-Irox,2013-06-14 19:15:00,
2013-06-14 12:16:00,85.3,51.1,29.50,North,-999,-999.0,-999.0,5,0.00,,,-99.99,0.0,Linux-Irox,2013-06-14 19:16:00,
2013-06-14 12:25:00,84.6,50.4,29.49,North,-999,-999.0,-999.0,5,0.00,,,-99.99,0.0,Linux-Irox,2013-06-14 19:25:00,
2013-06-14 12:32:00,84.0,49.8,29.49,North,-999,-999.0,-999.0,5,0.00,,,-99.99,0.0,Linux-Irox,2013-06-14 19:32:00,
2013-06-14 12:35:00,83.7,49.5,29.49,North,-999,-999.0,-999.0,5,0.00,,,-99.99,0.0,Linux-Irox,2013-06-14 19:35:00,
2013-06-14 12:45:00,84.9,50.7,29.49,North,-999,-999.0,-999.0,5,0.00,,,-99.99,0.0,Linux-Irox,2013-06-14 19:45:00,
2013-06-14 12:47:00,84.9,50.7,29.49,North,-999,-999.0,-999.0,5,0.00,,,-99.99,0.0,Linux-Irox,2013-06-14 19:47:00,
2013-06-14 12:55:00,84.7,50.5,29.49,North,-999,-999.0,-999.0,5,0.00,,,-99.99,0.0,Linux-Irox,2013-06-14 19:55:00,
2013-06-14 13:02:00,82.9,48.7,29.49,North,-999,-999.0,-999.0,5,0.00,,,-99.99,0.0,Linux-Irox,2013-06-14 20:02:00,
2013-06-14 13:05:00,83.5,49.3,29.49,North,-999,-999.0,-999.0,5,0.00,,,-99.99,0.0,Linux-Irox,2013-06-14 20:05:00,
2013-06-14 13:15:00,83.8,49.6,29.49,North,-999,-999.0,-999.0,5,0.00,,,-99.99,0.0,Linux-Irox,2013-06-14 20:15:00,
2013-06-14 13:17:00,83.8,49.6,29.49,North,-999,-999.0,-999.0,5,0.00,,,-99.99,0.0,Linux-Irox,2013-06-14 20:17:00,
2013-06-14 13:25:00,85.1,50.9,29.48,North,-999,-999.0,-999.0,5,0.00,,,-99.99,0.0,Linux-Irox,2013-06-14 20:25:00,
2013-06-14 13:35:00,85.5,51.3,29.48,North,-999,-999.0,-999.0,5,0.00,,,-99.99,0.0,Linux-Irox,2013-06-14 20:35:00,
2013-06-14 13:45:00,85.3,51.1,29.48,North,-999,-999.0,-999.0,5,0.00,,,-99.99,0.0,Linux-Irox,2013-06-14 20:45:00,
2013-06-14 13:46:00,85.3,51.1,29.48,North,-999,-999.0,-999.0,5,0.00,,,-99.99,0.0,Linux-Irox,2013-06-14 20:46:00,
2013-06-14 13:55:00,85.8,51.6,29.48,North,-999,-999.0,-999.0,5,0.00,,,-99.99,0.0,Linux-Irox,2013-06-14 20:55:00,
2013-06-14 14:02:00,86.0,51.8,29.48,North,-999,-999.0,-999.0,5,0.00,,,-99.99,0.0,Linux-Irox,2013-06-14 21:02:00,
2013-06-14 14:05:00,85.8,51.6,29.48,North,-999,-999.0,-999.0,5,0.00,,,-99.99,0.0,Linux-Irox,2013-06-14 21:05:00,
2013-06-14 14:15:00,85.6,51.4,29.48,North,-999,-999.0,-999.0,5,0.00,,,-99.99,0.0,Linux-Irox,2013-06-14 21:15:00,
2013-06-14 14:16:00,85.6,51.4,29.48,North,-999,-999.0,-999.0,5,0.00,,,-99.99,0.0,Linux-Irox,2013-06-14 21:16:00,
2013-06-14 14:25:00,86.0,51.8,29.48,North,-999,-999.0,-999.0,5,0.00,,,-99.99,0.0,Linux-Irox,2013-06-14 21:25:00,
2013-06-14 14:32:00,86.2,52.0,29.48,North,-999,-999.0,-999.0,5,0.00,,,-99.99,0.0,Linux-Irox,2013-06-14 21:32:00,
2013-06-14 14:35:00,86.5,52.3,29.48,North,-999,-999.0,-999.0,5,0.00,,,-99.99,0.0,Linux-Irox,2013-06-14 21:35:00,
2013-06-14 14:45:00,85.8,51.6,29.47,North,-999,-999.0,-999.0,5,0.00,,,-99.99,0.0,Linux-Irox,2013-06-14 21:45:00,
2013-06-14 14:47:00,85.8,51.6,29.47,North,-999,-999.0,-999.0,5,0.00,,,-99.99,0.0,Linux-Irox,2013-06-14 21:47:00,
2013-06-14 14:55:00,86.2,52.0,29.47,North,-999,-999.0,-999.0,5,0.00,,,-99.99,0.0,Linux-Irox,2013-06-14 21:55:00,
2013-06-14 15:01:00,86.4,52.2,29.46,North,-999,-999.0,-999.0,5,0.00,,,-99.99,0.0,Linux-Irox,2013-06-14 22:01:00,
2013-06-14 15:05:00,86.9,52.7,29.46,North,-999,-999.0,-999.0,5,0.00,,,-99.99,0.0,Linux-Irox,2013-06-14 22:05:00,
2013-06-14 15:15:00,87.1,52.9,29.46,North,-999,-999.0,-999.0,5,0.00,,,-99.99,0.0,Linux-Irox,2013-06-14 22:15:00,
2013-06-14 15:16:00,87.1,52.9,29.46,North,-999,-999.0,-999.0,5,0.00,,,-99.99,0.0,Linux-Irox,2013-06-14 22:16:00,
2013-06-14 15:25:00,88.5,54.3,29.46,North,-999,-999.0,-999.0,5,0.00,,,-99.99,0.0,Linux-Irox,2013-06-14 22:25:00,
2013-06-14 15:31:00,87.1,52.9,29.46,North,-999,-999.0,-999.0,5,0.00,,,-99.99,0.0,Linux-Irox,2013-06-14 22:31:00,
2013-06-14 15:35:00,86.5,52.3,29.46,North,-999,-999.0,-999.0,5,0.00,,,-99.99,0.0,Linux-Irox,2013-06-14 22:35:00,
2013-06-14 15:45:00,85.6,51.4,29.45,North,-999,-999.0,-999.0,5,0.00,,,-99.99,0.0,Linux-Irox,2013-06-14 22:45:00,
2013-06-14 15:47:00,85.6,51.4,29.45,North,-999,-999.0,-999.0,5,0.00,,,-99.99,0.0,Linux-Irox,2013-06-14 22:47:00,
2013-06-14 15:55:00,86.0,51.8,29.45,North,-999,-999.0,-999.0,5,0.00,,,-99.99,0.0,Linux-Irox,2013-06-14 22:55:00,
2013-06-14 16:02:00,85.1,50.9,29.44,North,-999,-999.0,-999.0,5,0.00,,,-99.99,0.0,Linux-Irox,2013-06-14 23:02:00,
2013-06-14 16:05:00,85.3,51.1,29.44,North,-999,-999.0,-999.0,5,0.00,,,-99.99,0.0,Linux-Irox,2013-06-14 23:05:00,
2013-06-14 16:15:00,84.7,50.5,29.44,North,-999,-999.0,-999.0,5,0.00,,,-99.99,0.0,Linux-Irox,2013-06-14 23:15:00,
2013-06-14 16:16:00,84.7,50.5,29.44,North,-999,-999.0,-999.0,5,0.00,,,-99.99,0.0,Linux-Irox,2013-06-14 23:16:00,
2013-06-14 16:25:00,85.5,51.3,29.44,North,-999,-999.0,-999.0,5,0.00,,,-99.99,0.0,Linux-Irox,2013-06-14 23:25:00,
2013-06-14 16:32:00,85.1,50.9,29.44,North,-999,-999.0,-999.0,5,0.00,,,-99.99,0.0,Linux-Irox,2013-06-14 23:32:00,
2013-06-14 16:35:00,84.6,50.4,29.44,North,-999,-999.0,-999.0,5,0.00,,,-99.99,0.0,Linux-Irox,2013-06-14 23:35:00,
2013-06-14 16:45:00,84.7,50.5,29.43,North,-999,-999.0,-999.0,5,0.00,,,-99.99,0.0,Linux-Irox,2013-06-14 23:45:00,
2013-06-14 16:46:00,84.7,50.5,29.43,North,-999,-999.0,-999.0,5,0.00,,,-99.99,0.0,Linux-Irox,2013-06-14 23:46:00,
2013-06-14 16:55:00,83.5,49.3,29.43,North,-999,-999.0,-999.0,5,0.00,,,-99.99,0.0,Linux-Irox,2013-06-14 23:55:00,
2013-06-14 17:02:00,83.5,49.3,29.42,North,-999,-999.0,-999.0,5,0.00,,,-99.99,0.0,Linux-Irox,2013-06-15 00:02:00,
2013-06-14 17:05:00,83.7,49.5,29.42,North,-999,-999.0,-999.0,5,0.00,,,-99.99,0.0,Linux-Irox,2013-06-15 00:05:00,
2013-06-14 17:15:00,83.7,49.5,29.42,North,-999,-999.0,-999.0,5,0.00,,,-99.99,0.0,Linux-Irox,2013-06-15 00:15:00,
2013-06-14 17:16:00,83.7,49.5,29.42,North,-999,-999.0,-999.0,5,0.00,,,-99.99,0.0,Linux-Irox,2013-06-15 00:16:00,
2013-06-14 17:25:00,83.1,48.9,29.42,North,-999,-999.0,-999.0,5,0.00,,,-99.99,0.0,Linux-Irox,2013-06-15 00:25:00,
2013-06-14 17:32:00,83.8,49.6,29.42,North,-999,-999.0,-999.0,5,0.00,,,-99.99,0.0,Linux-Irox,2013-06-15 00:32:00,
2013-06-14 17:35:00,84.2,50.0,29.42,North,-999,-999.0,-999.0,5,0.00,,,-99.99,0.0,Linux-Irox,2013-06-15 00:35:00,
2013-06-14 17:45:00,83.5,49.3,29.41,North,-999,-999.0,-999.0,5,0.00,,,-99.99,0.0,Linux-Irox,2013-06-15 00:45:00,
2013-06-14 17:46:00,83.5,49.3,29.41,North,-999,-999.0,-999.0,5,0.00,,,-99.99,0.0,Linux-Irox,2013-06-15 00:46:00,
2013-06-14 17:55:00,82.9,48.7,29.41,North,-999,-999.0,-999.0,5,0.00,,,-99.99,0.0,Linux-Irox,2013-06-15 00:55:00,
2013-06-14 18:02:00,82.4,48.2,29.36,North,-999,-999.0,-999.0,5,0.00,,,-99.99,0.0,Linux-Irox,2013-06-15 01:02:00,
2013-06-14 18:05:00,81.7,47.5,29.36,North,-999,-999.0,-999.0,5,0.00,,,-99.99,0.0,Linux-Irox,2013-06-15 01:05:00,
2013-06-14 18:15:00,81.7,47.5,29.36,North,-999,-999.0,-999.0,5,0.00,,,-99.99,0.0,Linux-Irox,2013-06-15 01:15:00,
2013-06-14 18:16:00,81.7,47.5,29.36,North,-999,-999.0,-999.0,5,0.00,,,-99.99,0.0,Linux-Irox,2013-06-15 01:16:00,
2013-06-14 18:25:00,81.1,46.9,29.33,North,-999,-999.0,-999.0,5,0.00,,,-99.99,0.0,Linux-Irox,2013-06-15 01:25:00,
2013-06-14 18:32:00,81.3,47.1,29.33,North,-999,-999.0,-999.0,5,0.00,,,-99.99,0.0,Linux-Irox,2013-06-15 01:32:00,
2013-06-14 18:35:00,81.3,47.1,29.33,North,-999,-999.0,-999.0,5,0.00,,,-99.99,0.0,Linux-Irox,2013-06-15 01:35:00,
2013-06-14 18:45:00,79.3,45.1,29.33,North,-999,-999.0,-999.0,5,0.00,,,-99.99,0.0,Linux-Irox,2013-06-15 01:45:00,
2013-06-14 18:47:00,79.3,45.1,29.33,North,-999,-999.0,-999.0,5,0.00,,,-99.99,0.0,Linux-Irox,2013-06-15 01:47:00,
2013-06-14 18:55:00,79.3,45.1,29.33,North,-999,-999.0,-999.0,5,0.00,,,-99.99,0.0,Linux-Irox,2013-06-15 01:55:00,
2013-06-14 19:05:00,77.9,43.7,29.38,North,-999,-999.0,-999.0,5,0.00,,,-99.99,0.0,Linux-Irox,2013-06-15 02:05:00,
2013-06-14 19:15:00,76.8,42.6,29.38,North,-999,-999.0,-999.0,5,0.00,,,-99.99,0.0,Linux-Irox,2013-06-15 02:15:00,
2013-06-14 19:25:00,75.6,41.4,29.39,North,-999,-999.0,-999.0,5,0.00,,,-99.99,0.0,Linux-Irox,2013-06-15 02:25:00,
2013-06-14 19:35:00,74.7,40.5,29.39,North,-999,-999.0,-999.0,5,0.00,,,-99.99,0.0,Linux-Irox,2013-06-15 02:35:00,
2013-06-14 19:45:00,73.9,39.7,29.40,North,-999,-999.0,-999.0,5,0.00,,,-99.99,0.0,Linux-Irox,2013-06-15 02:45:00,
2013-06-14 19:47:00,73.9,39.7,29.40,North,-999,-999.0,-999.0,5,0.00,,,-99.99,0.0,Linux-Irox,2013-06-15 02:47:00,
2013-06-14 19:55:00,72.9,38.7,29.40,North,-999,-999.0,-999.0,5,0.00,,,-99.99,0.0,Linux-Irox,2013-06-15 02:55:00,
2013-06-14 20:02:00,72.3,38.1,29.41,North,-999,-999.0,-999.0,5,0.00,,,-99.99,0.0,Linux-Irox,2013-06-15 03:02:00,
2013-06-14 20:05:00,72.0,37.8,29.41,North,-999,-999.0,-999.0,5,0.00,,,-99.99,0.0,Linux-Irox,2013-06-15 03:05:00,
2013-06-14 20:15:00,70.7,36.5,29.41,North,-999,-999.0,-999.0,5,0.00,,,-99.99,0.0,Linux-Irox,2013-06-15 03:15:00,
2013-06-14 20:16:00,70.7,36.5,29.41,North,-999,-999.0,-999.0,5,0.00,,,-99.99,0.0,Linux-Irox,2013-06-15 03:16:00,
2013-06-14 20:25:00,69.6,35.4,29.40,North,-999,-999.0,-999.0,5,0.00,,,-99.99,0.0,Linux-Irox,2013-06-15 03:25:00,
2013-06-14 20:32:00,69.1,34.9,29.40,North,-999,-999.0,-999.0,5,0.00,,,-99.99,0.0,Linux-Irox,2013-06-15 03:32:00,
2013-06-14 20:35:00,68.7,34.5,29.40,North,-999,-999.0,-999.0,5,0.00,,,-99.99,0.0,Linux-Irox,2013-06-15 03:35:00,
2013-06-14 20:45:00,68.0,33.8,29.42,North,-999,-999.0,-999.0,5,0.00,,,-99.99,0.0,Linux-Irox,2013-06-15 03:45:00,
2013-06-14 20:47:00,68.0,33.8,29.42,North,-999,-999.0,-999.0,5,0.00,,,-99.99,0.0,Linux-Irox,2013-06-15 03:47:00,
2013-06-14 20:55:00,67.6,33.4,29.42,North,-999,-999.0,-999.0,5,0.00,,,-99.99,0.0,Linux-Irox,2013-06-15 03:55:00,
2013-06-14 21:01:00,67.3,33.1,29.43,North,-999,-999.0,-999.0,5,0.00,,,-99.99,0.0,Linux-Irox,2013-06-15 04:01:00,
2013-06-14 21:05:00,67.5,33.3,29.43,North,-999,-999.0,-999.0,5,0.00,,,-99.99,0.0,Linux-Irox,2013-06-15 04:05:00,
2013-06-14 21:15:00,66.7,32.5,29.43,North,-999,-999.0,-999.0,5,0.00,,,-99.99,0.0,Linux-Irox,2013-06-15 04:15:00,
2013-06-14 21:16:00,66.7,32.5,29.43,North,-999,-999.0,-999.0,5,0.00,,,-99.99,0.0,Linux-Irox,2013-06-15 04:16:00,
2013-06-14 21:25:00,66.4,32.2,29.43,North,-999,-999.0,-999.0,5,0.00,,,-99.99,0.0,Linux-Irox,2013-06-15 04:25:00,
2013-06-14 21:32:00,66.0,31.8,29.43,North,-999,-999.0,-999.0,5,0.00,,,-99.99,0.0,Linux-Irox,2013-06-15 04:32:00,
2013-06-14 21:35:00,65.8,31.6,29.43,North,-999,-999.0,-999.0,5,0.00,,,-99.99,0.0,Linux-Irox,2013-06-15 04:35:00,
2013-06-14 21:45:00,65.3,31.1,29.44,North,-999,-999.0,-999.0,5,0.00,,,-99.99,0.0,Linux-Irox,2013-06-15 04:45:00,
2013-06-14 21:46:00,65.3,31.1,29.44,North,-999,-999.0,-999.0,5,0.00,,,-99.99,0.0,Linux-Irox,2013-06-15 04:46:00,
2013-06-14 21:55:00,64.8,30.6,29.44,North,-999,-999.0,-999.0,5,0.00,,,-99.99,0.0,Linux-Irox,2013-06-15 04:55:00,
2013-06-14 22:02:00,64.4,30.2,29.45,North,-999,-999.0,-999.0,5,0.00,,,-99.99,0.0,Linux-Irox,2013-06-15 05:02:00,
2013-06-14 22:05:00,64.4,30.2,29.45,North,-999,-999.0,-999.0,5,0.00,,,-99.99,0.0,Linux-Irox,2013-06-15 05:05:00,
2013-06-14 22:15:00,64.0,29.8,29.45,North,-999,-999.0,-999.0,5,0.00,,,-99.99,0.0,Linux-Irox,2013-06-15 05:15:00,
2013-06-14 22:16:00,64.0,29.8,29.45,North,-999,-999.0,-999.0,5,0.00,,,-99.99,0.0,Linux-Irox,2013-06-15 05:16:00,
2013-06-14 22:25:00,63.5,29.3,29.45,North,-999,-999.0,-999.0,5,0.00,,,-99.99,0.0,Linux-Irox,2013-06-15 05:25:00,
2013-06-14 22:32:00,63.5,29.3,29.45,North,-999,-999.0,-999.0,5,0.00,,,-99.99,0.0,Linux-Irox,2013-06-15 05:32:00,
2013-06-14 22:35:00,63.5,29.3,29.45,North,-999,-999.0,-999.0,5,0.00,,,-99.99,0.0,Linux-Irox,2013-06-15 05:35:00,
2013-06-14 22:45:00,63.1,28.9,29.46,North,-999,-999.0,-999.0,5,0.00,,,-99.99,0.0,Linux-Irox,2013-06-15 05:45:00,
2013-06-14 22:46:00,63.1,28.9,29.46,North,-999,-999.0,-999.0,5,0.00,,,-99.99,0.0,Linux-Irox,2013-06-15 05:46:00,
2013-06-14 22:55:00,62.8,28.6,29.46,North,-999,-999.0,-999.0,5,0.00,,,-99.99,0.0,Linux-Irox,2013-06-15 05:55:00,
2013-06-14 23:02:00,62.8,28.6,29.45,North,-999,-999.0,-999.0,5,0.00,,,-99.99,0.0,Linux-Irox,2013-06-15 06:02:00,
2013-06-14 23:05:00,62.6,28.4,29.45,North,-999,-999.0,-999.0,5,0.00,,,-99.99,0.0,Linux-Irox,2013-06-15 06:05:00,
2013-06-14 23:15:00,62.2,28.0,29.45,North,-999,-999.0,-999.0,5,0.00,,,-99.99,0.0,Linux-Irox,2013-06-15 06:15:00,
2013-06-14 23:17:00,62.2,28.0,29.45,North,-999,-999.0,-999.0,5,0.00,,,-99.99,0.0,Linux-Irox,2013-06-15 06:17:00,
2013-06-14 23:25:00,61.5,27.3,29.46,North,-999,-999.0,-999.0,5,0.00,,,-99.99,0.0,Linux-Irox,2013-06-15 06:25:00,
2013-06-14 23:32:00,61.5,27.3,29.46,North,-999,-999.0,-999.0,5,0.00,,,-99.99,0.0,Linux-Irox,2013-06-15 06:32:00,
2013-06-14 23:35:00,61.3,27.1,29.46,North,-999,-999.0,-999.0,5,0.00,,,-99.99,0.0,Linux-Irox,2013-06-15 06:35:00,
2013-06-14 23:45:00,61.2,27.0,29.46,North,-999,-999.0,-999.0,5,0.00,,,-99.99,0.0,Linux-Irox,2013-06-15 06:45:00,
2013-06-14 23:47:00,61.2,27.0,29.46,North,-999,-999.0,-999.0,5,0.00,,,-99.99,0.0,Linux-Irox,2013-06-15 06:47:00,
2013-06-14 23:55:00,61.2,27.0,29.46,North,-999,-999.0,-999.0,5,0.00,,,-99.99,0.0,Linux-Irox,2013-06-15 06:55:00,